ENT1341 EPKT-DTNH
Flight info
| Callsign | ENT1341 |
|---|---|
| Flight time | 2h 42m |
| Altitude | 40000 |
| Route | BABKO DCT KOPRY DCT XAMIT/N0448F390 DCT EKMIL DCT ENSOT DCT PININ DCT TUNEX UM738 DIDON G727 ATLEL ATLEL1E |
| Aircraft | B738/M-SDFGHIJ1RWXY/EB1 |
Departure
| Time | 2026-05-07 16:55 |
|---|---|
| Airport | Katowice Wojciech Korfanty International Airport (EPKT) |
Arrival
| Time | 2026-05-07 19:38 |
|---|---|
| Airport | Enfidha - Hammamet International Airport (DTNH) |
| Time | Latitude | Longitude | Altitude | Speed | Heading |
|---|---|---|---|---|---|
| 2026-05-07 16:27 | 50.47142 | 19.07870 | 980 ft | 0 kts | 180° |
| 2026-05-07 16:46 | 50.47143 | 19.07870 | 986 ft | 1 kts | 180° |
| 2026-05-07 16:46 | 50.47159 | 19.07871 | 993 ft | 3 kts | 181° |
| 2026-05-07 16:47 | 50.47179 | 19.07872 | 991 ft | 3 kts | 182° |
| 2026-05-07 16:47 | 50.47199 | 19.07873 | 988 ft | 3 kts | 179° |
| 2026-05-07 16:47 | 50.47219 | 19.07871 | 992 ft | 3 kts | 162° |
| 2026-05-07 16:47 | 50.47233 | 19.07861 | 987 ft | 2 kts | 109° |
| 2026-05-07 16:48 | 50.47235 | 19.07854 | 987 ft | 0 kts | 90° |
| 2026-05-07 16:51 | 50.47234 | 19.07935 | 989 ft | 14 kts | 91° |
| 2026-05-07 16:51 | 50.47233 | 19.08161 | 993 ft | 26 kts | 90° |
| 2026-05-07 16:52 | 50.47233 | 19.08438 | 995 ft | 24 kts | 90° |
| 2026-05-07 16:52 | 50.47232 | 19.08696 | 995 ft | 23 kts | 90° |
| 2026-05-07 16:52 | 50.47231 | 19.08943 | 997 ft | 22 kts | 90° |
| 2026-05-07 16:52 | 50.47231 | 19.09182 | 999 ft | 22 kts | 90° |
| 2026-05-07 16:53 | 50.47231 | 19.09416 | 1000 ft | 21 kts | 90° |
| 2026-05-07 16:53 | 50.47230 | 19.09661 | 1002 ft | 23 kts | 90° |
| 2026-05-07 16:53 | 50.47230 | 19.09906 | 1004 ft | 21 kts | 90° |
| 2026-05-07 16:53 | 50.47278 | 19.10106 | 1005 ft | 19 kts | 52° |
| 2026-05-07 16:54 | 50.47358 | 19.10266 | 1007 ft | 18 kts | 52° |
| 2026-05-07 16:54 | 50.47437 | 19.10417 | 1008 ft | 18 kts | 39° |
| 2026-05-07 16:54 | 50.47554 | 19.10443 | 1008 ft | 17 kts | 356° |
| 2026-05-07 16:54 | 50.47597 | 19.10297 | 1007 ft | 17 kts | 270° |
| 2026-05-07 16:55 | 50.47598 | 19.09772 | 1003 ft | 86 kts | 269° |
| 2026-05-07 16:55 | 50.47599 | 19.08458 | 993 ft | 152 kts | 270° |
| 2026-05-07 16:55 | 50.47603 | 19.06589 | 1377 ft | 176 kts | 272° |
| 2026-05-07 16:55 | 50.47647 | 19.04714 | 2463 ft | 167 kts | 269° |
| 2026-05-07 16:56 | 50.47667 | 19.02798 | 3070 ft | 190 kts | 266° |
| 2026-05-07 16:56 | 50.47663 | 19.00566 | 3322 ft | 218 kts | 266° |
| 2026-05-07 16:56 | 50.46946 | 18.95830 | 4516 ft | 229 kts | 229° |
| 2026-05-07 16:57 | 50.45691 | 18.94316 | 5300 ft | 228 kts | 205° |
| 2026-05-07 16:57 | 50.44145 | 18.93742 | 6063 ft | 231 kts | 186° |
| 2026-05-07 16:57 | 50.42522 | 18.93684 | 6807 ft | 234 kts | 182° |
| 2026-05-07 16:57 | 50.40824 | 18.93708 | 7301 ft | 254 kts | 181° |
| 2026-05-07 16:58 | 50.39028 | 18.93735 | 8070 ft | 261 kts | 182° |
| 2026-05-07 16:58 | 50.37199 | 18.93746 | 8918 ft | 265 kts | 182° |
| 2026-05-07 16:58 | 50.35341 | 18.93792 | 9819 ft | 270 kts | 175° |
| 2026-05-07 16:58 | 50.33572 | 18.94931 | 10407 ft | 291 kts | 146° |
| 2026-05-07 16:59 | 50.32164 | 18.97442 | 10620 ft | 324 kts | 128° |
| 2026-05-07 16:59 | 50.30903 | 19.00532 | 10856 ft | 348 kts | 125° |
| 2026-05-07 16:59 | 50.29643 | 19.03781 | 11426 ft | 357 kts | 124° |
| 2026-05-07 16:59 | 50.28355 | 19.07134 | 12190 ft | 362 kts | 124° |
| 2026-05-07 17:00 | 50.27048 | 19.10513 | 12965 ft | 366 kts | 125° |
| 2026-05-07 17:00 | 50.25712 | 19.13930 | 13701 ft | 371 kts | 125° |
| 2026-05-07 17:00 | 50.24349 | 19.17385 | 14394 ft | 375 kts | 126° |
| 2026-05-07 17:00 | 50.22966 | 19.20870 | 15084 ft | 378 kts | 126° |
| 2026-05-07 17:01 | 50.21569 | 19.24374 | 15782 ft | 382 kts | 126° |
| 2026-05-07 17:01 | 50.20156 | 19.27911 | 16471 ft | 386 kts | 126° |
| 2026-05-07 17:01 | 50.18726 | 19.31481 | 17142 ft | 390 kts | 126° |
| 2026-05-07 17:01 | 50.17257 | 19.35066 | 17806 ft | 392 kts | 131° |
| 2026-05-07 17:02 | 50.15301 | 19.37928 | 18388 ft | 384 kts | 154° |
| 2026-05-07 17:02 | 50.12839 | 19.39395 | 18987 ft | 377 kts | 172° |
| 2026-05-07 17:02 | 50.10226 | 19.39862 | 19573 ft | 378 kts | 178° |
| 2026-05-07 17:02 | 50.07594 | 19.40205 | 20101 ft | 382 kts | 178° |
| 2026-05-07 17:03 | 50.04933 | 19.40547 | 20644 ft | 387 kts | 178° |
| 2026-05-07 17:03 | 50.02235 | 19.40908 | 21150 ft | 390 kts | 178° |
| 2026-05-07 17:03 | 49.99515 | 19.41288 | 21712 ft | 394 kts | 178° |
| 2026-05-07 17:03 | 49.96777 | 19.41683 | 22213 ft | 397 kts | 177° |
| 2026-05-07 17:04 | 49.94047 | 19.42084 | 22715 ft | 401 kts | 177° |
| 2026-05-07 17:04 | 49.91258 | 19.42497 | 23215 ft | 404 kts | 177° |
| 2026-05-07 17:04 | 49.88451 | 19.42914 | 23680 ft | 408 kts | 177° |
| 2026-05-07 17:04 | 49.85619 | 19.43335 | 23928 ft | 410 kts | 177° |
| 2026-05-07 17:05 | 49.82774 | 19.43758 | 23956 ft | 410 kts | 177° |
| 2026-05-07 17:05 | 49.79916 | 19.44181 | 24200 ft | 415 kts | 177° |
| 2026-05-07 17:05 | 49.77034 | 19.44608 | 24696 ft | 415 kts | 177° |
| 2026-05-07 17:05 | 49.74158 | 19.45033 | 25189 ft | 416 kts | 177° |
| 2026-05-07 17:06 | 49.71267 | 19.45459 | 25598 ft | 418 kts | 178° |
| 2026-05-07 17:06 | 49.68357 | 19.45887 | 25945 ft | 422 kts | 178° |
| 2026-05-07 17:06 | 49.65420 | 19.46305 | 26311 ft | 424 kts | 179° |
| 2026-05-07 17:06 | 49.62484 | 19.46160 | 26686 ft | 422 kts | 190° |
| 2026-05-07 17:07 | 49.59604 | 19.45249 | 27075 ft | 422 kts | 198° |
| 2026-05-07 17:07 | 49.56857 | 19.43667 | 27429 ft | 422 kts | 208° |
| 2026-05-07 17:07 | 49.54242 | 19.41604 | 27812 ft | 423 kts | 209° |
| 2026-05-07 17:07 | 49.51637 | 19.39490 | 28183 ft | 425 kts | 209° |
| 2026-05-07 17:08 | 49.49013 | 19.37349 | 28518 ft | 427 kts | 210° |
| 2026-05-07 17:08 | 49.46381 | 19.35212 | 28853 ft | 430 kts | 210° |
| 2026-05-07 17:08 | 49.43727 | 19.33073 | 29192 ft | 431 kts | 209° |
| 2026-05-07 17:08 | 49.41060 | 19.30937 | 29518 ft | 433 kts | 209° |
| 2026-05-07 17:09 | 49.38374 | 19.28800 | 29900 ft | 434 kts | 209° |
| 2026-05-07 17:09 | 49.35702 | 19.26681 | 30327 ft | 432 kts | 209° |
| 2026-05-07 17:09 | 49.33043 | 19.24578 | 30771 ft | 429 kts | 210° |
| 2026-05-07 17:09 | 49.30392 | 19.22486 | 31237 ft | 426 kts | 210° |
| 2026-05-07 17:10 | 49.27765 | 19.20416 | 31653 ft | 424 kts | 210° |
| 2026-05-07 17:10 | 49.25148 | 19.18354 | 32015 ft | 423 kts | 210° |
| 2026-05-07 17:10 | 49.22533 | 19.16296 | 32402 ft | 422 kts | 211° |
| 2026-05-07 17:10 | 49.19960 | 19.14274 | 32807 ft | 419 kts | 211° |
| 2026-05-07 17:11 | 49.17379 | 19.12249 | 33250 ft | 415 kts | 211° |
| 2026-05-07 17:11 | 49.14810 | 19.10236 | 33572 ft | 415 kts | 211° |
| 2026-05-07 17:11 | 49.12243 | 19.08224 | 33850 ft | 416 kts | 211° |
| 2026-05-07 17:11 | 49.09675 | 19.06214 | 34185 ft | 414 kts | 211° |
| 2026-05-07 17:12 | 49.07111 | 19.04210 | 34482 ft | 413 kts | 211° |
| 2026-05-07 17:12 | 49.04557 | 19.02215 | 34690 ft | 415 kts | 211° |
| 2026-05-07 17:12 | 49.01982 | 19.00206 | 34919 ft | 415 kts | 211° |
| 2026-05-07 17:12 | 48.99416 | 18.98208 | 35200 ft | 414 kts | 211° |
| 2026-05-07 17:13 | 48.96847 | 18.96211 | 35471 ft | 414 kts | 211° |
| 2026-05-07 17:13 | 48.94280 | 18.94216 | 35701 ft | 415 kts | 210° |
| 2026-05-07 17:13 | 48.91706 | 18.92218 | 35919 ft | 415 kts | 210° |
| 2026-05-07 17:13 | 48.89143 | 18.90232 | 36180 ft | 414 kts | 210° |
| 2026-05-07 17:14 | 48.86577 | 18.88245 | 36430 ft | 414 kts | 210° |
| 2026-05-07 17:14 | 48.84004 | 18.86256 | 36636 ft | 414 kts | 210° |
| 2026-05-07 17:14 | 48.81434 | 18.84270 | 36852 ft | 415 kts | 210° |
| 2026-05-07 17:14 | 48.78864 | 18.82287 | 37085 ft | 414 kts | 210° |
| 2026-05-07 17:15 | 48.76298 | 18.80310 | 37313 ft | 414 kts | 210° |
| 2026-05-07 17:15 | 48.73732 | 18.78335 | 37545 ft | 414 kts | 210° |
| 2026-05-07 17:15 | 48.71155 | 18.76353 | 37717 ft | 415 kts | 210° |
| 2026-05-07 17:15 | 48.68578 | 18.74374 | 37943 ft | 415 kts | 210° |
| 2026-05-07 17:16 | 48.66013 | 18.72407 | 38159 ft | 414 kts | 210° |
| 2026-05-07 17:16 | 48.63442 | 18.70437 | 38377 ft | 414 kts | 210° |
| 2026-05-07 17:16 | 48.60865 | 18.68464 | 38565 ft | 414 kts | 210° |
| 2026-05-07 17:16 | 48.58292 | 18.66498 | 38740 ft | 414 kts | 210° |
| 2026-05-07 17:17 | 48.55725 | 18.64538 | 38864 ft | 414 kts | 210° |
| 2026-05-07 17:17 | 48.53183 | 18.62599 | 39029 ft | 414 kts | 210° |
| 2026-05-07 17:17 | 48.50612 | 18.60640 | 39164 ft | 414 kts | 209° |
| 2026-05-07 17:17 | 48.48044 | 18.58686 | 39283 ft | 414 kts | 209° |
| 2026-05-07 17:18 | 48.45466 | 18.56726 | 39430 ft | 414 kts | 209° |
| 2026-05-07 17:18 | 48.42892 | 18.54772 | 39549 ft | 414 kts | 209° |
| 2026-05-07 17:18 | 48.40314 | 18.52817 | 39655 ft | 415 kts | 209° |
| 2026-05-07 17:18 | 48.37726 | 18.50856 | 39756 ft | 416 kts | 209° |
| 2026-05-07 17:19 | 48.35142 | 18.48901 | 39876 ft | 415 kts | 209° |
| 2026-05-07 17:19 | 48.32562 | 18.46952 | 39957 ft | 416 kts | 209° |
| 2026-05-07 17:19 | 48.27369 | 18.43033 | 39972 ft | 418 kts | 209° |
| 2026-05-07 17:20 | 48.22174 | 18.39123 | 39985 ft | 418 kts | 209° |
| 2026-05-07 17:20 | 48.16965 | 18.35211 | 39971 ft | 418 kts | 209° |
| 2026-05-07 17:21 | 48.11754 | 18.31306 | 39969 ft | 418 kts | 209° |
| 2026-05-07 17:21 | 48.06591 | 18.27447 | 39983 ft | 418 kts | 209° |
| 2026-05-07 17:22 | 48.01383 | 18.23562 | 39965 ft | 418 kts | 209° |
| 2026-05-07 17:22 | 47.96178 | 18.19689 | 39970 ft | 417 kts | 209° |
| 2026-05-07 17:23 | 47.90987 | 18.15834 | 39966 ft | 416 kts | 209° |
| 2026-05-07 17:23 | 47.85804 | 18.11994 | 39980 ft | 415 kts | 208° |
| 2026-05-07 17:24 | 47.81511 | 18.08820 | 39965 ft | 415 kts | 208° |
| 2026-05-07 17:24 | 47.75490 | 18.04378 | 39973 ft | 414 kts | 208° |
| 2026-05-07 17:25 | 47.71167 | 18.01196 | 39972 ft | 414 kts | 208° |
| 2026-05-07 17:25 | 47.65165 | 17.96788 | 39995 ft | 414 kts | 208° |
| 2026-05-07 17:26 | 47.60855 | 17.93629 | 39969 ft | 415 kts | 208° |
| 2026-05-07 17:26 | 47.55673 | 17.89839 | 39968 ft | 416 kts | 208° |
| 2026-05-07 17:27 | 47.50468 | 17.86041 | 39970 ft | 417 kts | 208° |
| 2026-05-07 17:27 | 47.45250 | 17.82242 | 39970 ft | 418 kts | 208° |
| 2026-05-07 17:28 | 47.40026 | 17.78447 | 39967 ft | 419 kts | 208° |
| 2026-05-07 17:28 | 47.34781 | 17.74645 | 39972 ft | 420 kts | 208° |
| 2026-05-07 17:29 | 47.29537 | 17.70853 | 39977 ft | 421 kts | 208° |
| 2026-05-07 17:29 | 47.24299 | 17.67073 | 39962 ft | 421 kts | 208° |
| 2026-05-07 17:30 | 47.19027 | 17.63277 | 39965 ft | 421 kts | 209° |
| 2026-05-07 17:30 | 47.13768 | 17.59499 | 39969 ft | 421 kts | 209° |
| 2026-05-07 17:31 | 47.08507 | 17.55728 | 39975 ft | 420 kts | 209° |
| 2026-05-07 17:31 | 47.03255 | 17.51972 | 39968 ft | 419 kts | 209° |
| 2026-05-07 17:32 | 46.98021 | 17.48236 | 39968 ft | 418 kts | 209° |
| 2026-05-07 17:32 | 46.92803 | 17.44520 | 39975 ft | 417 kts | 209° |
| 2026-05-07 17:33 | 46.87598 | 17.40822 | 39978 ft | 416 kts | 209° |
| 2026-05-07 17:33 | 46.82433 | 17.37159 | 39982 ft | 414 kts | 209° |
| 2026-05-07 17:34 | 46.77253 | 17.33494 | 39994 ft | 413 kts | 209° |
| 2026-05-07 17:34 | 46.72069 | 17.29834 | 39989 ft | 413 kts | 209° |
| 2026-05-07 17:35 | 46.66902 | 17.26194 | 39995 ft | 413 kts | 209° |
| 2026-05-07 17:35 | 46.61728 | 17.22556 | 39990 ft | 413 kts | 209° |
| 2026-05-07 17:36 | 46.56547 | 17.18921 | 39996 ft | 413 kts | 209° |
| 2026-05-07 17:36 | 46.51393 | 17.15313 | 39988 ft | 414 kts | 209° |
| 2026-05-07 17:37 | 46.46192 | 17.11679 | 39986 ft | 415 kts | 209° |
| 2026-05-07 17:37 | 46.40990 | 17.08053 | 39984 ft | 416 kts | 209° |
| 2026-05-07 17:38 | 46.35767 | 17.04420 | 39979 ft | 417 kts | 209° |
| 2026-05-07 17:38 | 46.30531 | 17.00784 | 39983 ft | 417 kts | 209° |
| 2026-05-07 17:39 | 46.25275 | 16.97143 | 39980 ft | 418 kts | 209° |
| 2026-05-07 17:39 | 46.20089 | 16.93360 | 39984 ft | 417 kts | 212° |
| 2026-05-07 17:40 | 46.15036 | 16.89358 | 39979 ft | 417 kts | 212° |
| 2026-05-07 17:40 | 46.09957 | 16.85329 | 39983 ft | 416 kts | 212° |
| 2026-05-07 17:41 | 46.04867 | 16.81339 | 39989 ft | 416 kts | 212° |
| 2026-05-07 17:41 | 45.99764 | 16.77369 | 39990 ft | 416 kts | 212° |
| 2026-05-07 17:42 | 45.94667 | 16.73419 | 39991 ft | 416 kts | 211° |
| 2026-05-07 17:42 | 45.89571 | 16.69479 | 39992 ft | 416 kts | 211° |
| 2026-05-07 17:43 | 45.84481 | 16.65551 | 39995 ft | 415 kts | 211° |
| 2026-05-07 17:43 | 45.79397 | 16.61636 | 39991 ft | 415 kts | 211° |
| 2026-05-07 17:44 | 45.74313 | 16.57729 | 39995 ft | 414 kts | 211° |
| 2026-05-07 17:44 | 45.69263 | 16.53856 | 40003 ft | 414 kts | 211° |
| 2026-05-07 17:45 | 45.64175 | 16.49963 | 40001 ft | 414 kts | 211° |
| 2026-05-07 17:45 | 45.59100 | 16.46086 | 39995 ft | 414 kts | 211° |
| 2026-05-07 17:46 | 45.54020 | 16.42214 | 39999 ft | 414 kts | 211° |
| 2026-05-07 17:46 | 45.48942 | 16.38352 | 40009 ft | 413 kts | 211° |
| 2026-05-07 17:47 | 45.43866 | 16.34500 | 40005 ft | 413 kts | 211° |
| 2026-05-07 17:47 | 45.38787 | 16.30652 | 40002 ft | 413 kts | 211° |
| 2026-05-07 17:48 | 45.33703 | 16.26809 | 40004 ft | 414 kts | 211° |
| 2026-05-07 17:48 | 45.28643 | 16.22992 | 40002 ft | 414 kts | 211° |
| 2026-05-07 17:49 | 45.23565 | 16.19170 | 40003 ft | 414 kts | 211° |
| 2026-05-07 17:49 | 45.18468 | 16.15340 | 40004 ft | 414 kts | 211° |
| 2026-05-07 17:50 | 45.13375 | 16.11522 | 40000 ft | 414 kts | 211° |
| 2026-05-07 17:50 | 45.08278 | 16.07708 | 40000 ft | 414 kts | 211° |
| 2026-05-07 17:51 | 45.03179 | 16.03900 | 40005 ft | 414 kts | 211° |
| 2026-05-07 17:51 | 44.98077 | 16.00099 | 40007 ft | 415 kts | 211° |
| 2026-05-07 17:52 | 44.92976 | 15.96305 | 40009 ft | 415 kts | 211° |
| 2026-05-07 17:52 | 44.87866 | 15.92513 | 40014 ft | 415 kts | 211° |
| 2026-05-07 17:53 | 44.82750 | 15.88723 | 40016 ft | 415 kts | 212° |
| 2026-05-07 17:53 | 44.77630 | 15.84938 | 40018 ft | 415 kts | 212° |
| 2026-05-07 17:54 | 44.72553 | 15.81193 | 40011 ft | 415 kts | 212° |
| 2026-05-07 17:54 | 44.67435 | 15.77425 | 40022 ft | 415 kts | 212° |
| 2026-05-07 17:55 | 44.62317 | 15.73665 | 40033 ft | 415 kts | 212° |
| 2026-05-07 17:55 | 44.57184 | 15.69900 | 40027 ft | 415 kts | 212° |
| 2026-05-07 17:56 | 44.52059 | 15.66150 | 40033 ft | 415 kts | 212° |
| 2026-05-07 17:56 | 44.46930 | 15.62404 | 40035 ft | 415 kts | 212° |
| 2026-05-07 17:57 | 44.42672 | 15.59300 | 40029 ft | 415 kts | 212° |
| 2026-05-07 17:57 | 44.36716 | 15.54966 | 40051 ft | 414 kts | 212° |
| 2026-05-07 17:58 | 44.31592 | 15.51246 | 40037 ft | 415 kts | 212° |
| 2026-05-07 17:58 | 44.26465 | 15.47531 | 40036 ft | 415 kts | 212° |
| 2026-05-07 17:59 | 44.21346 | 15.43830 | 40046 ft | 414 kts | 212° |
| 2026-05-07 17:59 | 44.16228 | 15.40136 | 40045 ft | 414 kts | 212° |
| 2026-05-07 18:00 | 44.11117 | 15.36455 | 40046 ft | 414 kts | 212° |
| 2026-05-07 18:00 | 44.06002 | 15.32777 | 40044 ft | 413 kts | 212° |
| 2026-05-07 18:01 | 44.00924 | 15.29134 | 40043 ft | 413 kts | 212° |
| 2026-05-07 18:01 | 43.95821 | 15.25479 | 40044 ft | 413 kts | 212° |
| 2026-05-07 18:02 | 43.88159 | 15.20005 | 40035 ft | 413 kts | 212° |
| 2026-05-07 18:03 | 43.83044 | 15.16361 | 40025 ft | 413 kts | 212° |
| 2026-05-07 18:03 | 43.77936 | 15.12728 | 40020 ft | 413 kts | 212° |
| 2026-05-07 18:04 | 43.72820 | 15.09095 | 40015 ft | 413 kts | 213° |
| 2026-05-07 18:04 | 43.67709 | 15.05474 | 40017 ft | 413 kts | 213° |
| 2026-05-07 18:05 | 43.62600 | 15.01861 | 40015 ft | 413 kts | 213° |
| 2026-05-07 18:05 | 43.57478 | 14.98246 | 40017 ft | 413 kts | 213° |
| 2026-05-07 18:05 | 43.54913 | 14.96437 | 39849 ft | 416 kts | 213° |
| 2026-05-07 18:06 | 43.52331 | 14.94618 | 39612 ft | 416 kts | 213° |
| 2026-05-07 18:06 | 43.49804 | 14.92842 | 39379 ft | 412 kts | 213° |
| 2026-05-07 18:06 | 43.47262 | 14.91059 | 39147 ft | 407 kts | 213° |
| 2026-05-07 18:07 | 43.42201 | 14.87504 | 39030 ft | 410 kts | 213° |
| 2026-05-07 18:07 | 43.37121 | 14.83943 | 39010 ft | 408 kts | 213° |
| 2026-05-07 18:08 | 43.32080 | 14.80420 | 39003 ft | 405 kts | 213° |
| 2026-05-07 18:08 | 43.26945 | 14.77156 | 39003 ft | 406 kts | 210° |
| 2026-05-07 18:09 | 43.21738 | 14.74134 | 39001 ft | 406 kts | 210° |
| 2026-05-07 18:09 | 43.16550 | 14.71125 | 39005 ft | 405 kts | 210° |
| 2026-05-07 18:10 | 43.11403 | 14.68113 | 39000 ft | 404 kts | 210° |
| 2026-05-07 18:10 | 43.06229 | 14.65075 | 39005 ft | 404 kts | 210° |
| 2026-05-07 18:11 | 43.01932 | 14.62552 | 39007 ft | 404 kts | 210° |
| 2026-05-07 18:11 | 42.96759 | 14.59520 | 39008 ft | 405 kts | 211° |
| 2026-05-07 18:12 | 42.91582 | 14.56492 | 39003 ft | 405 kts | 211° |
| 2026-05-07 18:12 | 42.86396 | 14.53465 | 39004 ft | 405 kts | 211° |
| 2026-05-07 18:13 | 42.81214 | 14.50446 | 39006 ft | 404 kts | 211° |
| 2026-05-07 18:13 | 42.76044 | 14.47439 | 39008 ft | 404 kts | 211° |
| 2026-05-07 18:14 | 42.70883 | 14.44443 | 39003 ft | 403 kts | 211° |
| 2026-05-07 18:14 | 42.65755 | 14.41471 | 39008 ft | 402 kts | 211° |
| 2026-05-07 18:15 | 42.60614 | 14.38497 | 39009 ft | 401 kts | 211° |
| 2026-05-07 18:15 | 42.55491 | 14.35539 | 39014 ft | 400 kts | 211° |
| 2026-05-07 18:16 | 42.50374 | 14.32589 | 39015 ft | 399 kts | 211° |
| 2026-05-07 18:16 | 42.45272 | 14.29653 | 39021 ft | 398 kts | 211° |
| 2026-05-07 18:17 | 42.40182 | 14.26728 | 39024 ft | 397 kts | 211° |
| 2026-05-07 18:17 | 42.35086 | 14.23805 | 39017 ft | 397 kts | 211° |
| 2026-05-07 18:18 | 42.30037 | 14.20915 | 39020 ft | 397 kts | 211° |
| 2026-05-07 18:18 | 42.24951 | 14.18008 | 39015 ft | 396 kts | 211° |
| 2026-05-07 18:19 | 42.19875 | 14.15112 | 38987 ft | 395 kts | 212° |
| 2026-05-07 18:19 | 42.14952 | 14.12095 | 39037 ft | 382 kts | 216° |
| 2026-05-07 18:20 | 42.10288 | 14.08736 | 38976 ft | 385 kts | 216° |
| 2026-05-07 18:20 | 42.05522 | 14.05266 | 39015 ft | 392 kts | 216° |
| 2026-05-07 18:21 | 42.00709 | 14.01793 | 39002 ft | 391 kts | 216° |
| 2026-05-07 18:21 | 41.95922 | 13.98363 | 39050 ft | 387 kts | 216° |
| 2026-05-07 18:22 | 41.91175 | 13.94967 | 38999 ft | 385 kts | 216° |
| 2026-05-07 18:22 | 41.86466 | 13.91603 | 38984 ft | 383 kts | 216° |
| 2026-05-07 18:23 | 41.81762 | 13.88248 | 38986 ft | 382 kts | 216° |
| 2026-05-07 18:23 | 41.77066 | 13.84903 | 38988 ft | 382 kts | 216° |
| 2026-05-07 18:24 | 41.72364 | 13.81558 | 38976 ft | 383 kts | 216° |
| 2026-05-07 18:24 | 41.67665 | 13.78224 | 38964 ft | 382 kts | 216° |
| 2026-05-07 18:25 | 41.62970 | 13.74898 | 38960 ft | 382 kts | 216° |
| 2026-05-07 18:25 | 41.58278 | 13.71579 | 38958 ft | 381 kts | 216° |
| 2026-05-07 18:26 | 41.53683 | 13.68336 | 38962 ft | 380 kts | 216° |
| 2026-05-07 18:26 | 41.49030 | 13.65057 | 38950 ft | 380 kts | 216° |
| 2026-05-07 18:27 | 41.44355 | 13.61766 | 38941 ft | 380 kts | 216° |
| 2026-05-07 18:27 | 41.39688 | 13.58486 | 38938 ft | 378 kts | 216° |
| 2026-05-07 18:28 | 41.35046 | 13.55232 | 38933 ft | 376 kts | 216° |
| 2026-05-07 18:28 | 41.30419 | 13.51990 | 38947 ft | 377 kts | 216° |
| 2026-05-07 18:29 | 41.25764 | 13.48734 | 38928 ft | 377 kts | 216° |
| 2026-05-07 18:29 | 41.21130 | 13.45500 | 38923 ft | 375 kts | 216° |
| 2026-05-07 18:30 | 41.16556 | 13.42314 | 38922 ft | 372 kts | 216° |
| 2026-05-07 18:30 | 41.11984 | 13.39133 | 38925 ft | 370 kts | 216° |
| 2026-05-07 18:31 | 41.07440 | 13.35976 | 38924 ft | 367 kts | 216° |
| 2026-05-07 18:31 | 41.02933 | 13.32850 | 38927 ft | 365 kts | 216° |
| 2026-05-07 18:32 | 40.98445 | 13.29741 | 38925 ft | 363 kts | 216° |
| 2026-05-07 18:32 | 40.93976 | 13.26650 | 38927 ft | 362 kts | 216° |
| 2026-05-07 18:33 | 40.89522 | 13.23573 | 38931 ft | 361 kts | 216° |
| 2026-05-07 18:33 | 40.85076 | 13.20507 | 38927 ft | 361 kts | 216° |
| 2026-05-07 18:34 | 40.80627 | 13.17443 | 38924 ft | 361 kts | 216° |
| 2026-05-07 18:34 | 40.76171 | 13.14380 | 38933 ft | 361 kts | 216° |
| 2026-05-07 18:35 | 40.71740 | 13.11338 | 38927 ft | 362 kts | 216° |
| 2026-05-07 18:35 | 40.67265 | 13.08272 | 38923 ft | 362 kts | 216° |
| 2026-05-07 18:36 | 40.62785 | 13.05206 | 38923 ft | 363 kts | 216° |
| 2026-05-07 18:36 | 40.58301 | 13.02141 | 38923 ft | 363 kts | 216° |
| 2026-05-07 18:37 | 40.53813 | 12.99080 | 38920 ft | 363 kts | 216° |
| 2026-05-07 18:37 | 40.49309 | 12.96135 | 38921 ft | 364 kts | 214° |
| 2026-05-07 18:38 | 40.44742 | 12.93253 | 38923 ft | 364 kts | 214° |
| 2026-05-07 18:38 | 40.40180 | 12.90374 | 38920 ft | 363 kts | 214° |
| 2026-05-07 18:39 | 40.35624 | 12.87492 | 38919 ft | 363 kts | 214° |
| 2026-05-07 18:39 | 40.31085 | 12.84619 | 38921 ft | 362 kts | 214° |
| 2026-05-07 18:40 | 40.26556 | 12.81754 | 38922 ft | 361 kts | 214° |
| 2026-05-07 18:40 | 40.22041 | 12.78902 | 38917 ft | 360 kts | 214° |
| 2026-05-07 18:41 | 40.17530 | 12.76056 | 38923 ft | 360 kts | 214° |
| 2026-05-07 18:41 | 40.13043 | 12.73230 | 38921 ft | 359 kts | 214° |
| 2026-05-07 18:42 | 40.08548 | 12.70402 | 38919 ft | 358 kts | 214° |
| 2026-05-07 18:42 | 40.04060 | 12.67583 | 38919 ft | 358 kts | 214° |
| 2026-05-07 18:43 | 39.99575 | 12.64770 | 38926 ft | 357 kts | 214° |
| 2026-05-07 18:43 | 39.95097 | 12.61966 | 38920 ft | 357 kts | 214° |
| 2026-05-07 18:44 | 39.90621 | 12.59167 | 38921 ft | 356 kts | 214° |
| 2026-05-07 18:44 | 39.86152 | 12.56376 | 38922 ft | 356 kts | 214° |
| 2026-05-07 18:45 | 39.81682 | 12.53589 | 38925 ft | 356 kts | 214° |
| 2026-05-07 18:45 | 39.77216 | 12.50808 | 38923 ft | 355 kts | 214° |
| 2026-05-07 18:46 | 39.72782 | 12.48051 | 38921 ft | 355 kts | 214° |
| 2026-05-07 18:46 | 39.68320 | 12.45281 | 38917 ft | 355 kts | 214° |
| 2026-05-07 18:47 | 39.63858 | 12.42514 | 38917 ft | 355 kts | 214° |
| 2026-05-07 18:47 | 39.59396 | 12.39752 | 38918 ft | 356 kts | 214° |
| 2026-05-07 18:48 | 39.54926 | 12.36989 | 38921 ft | 356 kts | 214° |
| 2026-05-07 18:48 | 39.50450 | 12.34226 | 38916 ft | 356 kts | 214° |
| 2026-05-07 18:49 | 39.45968 | 12.31463 | 38912 ft | 357 kts | 213° |
| 2026-05-07 18:49 | 39.41511 | 12.28719 | 38913 ft | 357 kts | 213° |
| 2026-05-07 18:50 | 39.37021 | 12.25960 | 38915 ft | 357 kts | 213° |
| 2026-05-07 18:50 | 39.32528 | 12.23203 | 38913 ft | 357 kts | 213° |
| 2026-05-07 18:51 | 39.28026 | 12.20444 | 38919 ft | 358 kts | 213° |
| 2026-05-07 18:51 | 39.23530 | 12.17692 | 38914 ft | 358 kts | 213° |
| 2026-05-07 18:52 | 39.19030 | 12.14942 | 38908 ft | 358 kts | 213° |
| 2026-05-07 18:52 | 39.14531 | 12.12197 | 38912 ft | 357 kts | 213° |
| 2026-05-07 18:53 | 39.10039 | 12.09460 | 38912 ft | 357 kts | 213° |
| 2026-05-07 18:53 | 39.05576 | 12.06744 | 38914 ft | 357 kts | 213° |
| 2026-05-07 18:54 | 39.01086 | 12.04016 | 38913 ft | 357 kts | 213° |
| 2026-05-07 18:54 | 38.96594 | 12.01289 | 38919 ft | 357 kts | 213° |
| 2026-05-07 18:55 | 38.92105 | 11.98570 | 38906 ft | 357 kts | 213° |
| 2026-05-07 18:55 | 38.87613 | 11.95851 | 38908 ft | 357 kts | 213° |
| 2026-05-07 18:56 | 38.83121 | 11.93137 | 38914 ft | 357 kts | 213° |
| 2026-05-07 18:56 | 38.78629 | 11.90426 | 38925 ft | 357 kts | 213° |
| 2026-05-07 18:57 | 38.74155 | 11.87730 | 38916 ft | 357 kts | 213° |
| 2026-05-07 18:57 | 38.69661 | 11.85026 | 38923 ft | 357 kts | 213° |
| 2026-05-07 18:58 | 38.65888 | 11.82758 | 38922 ft | 357 kts | 213° |
| 2026-05-07 18:58 | 38.61414 | 11.80073 | 38923 ft | 357 kts | 213° |
| 2026-05-07 18:59 | 38.56885 | 11.77358 | 38923 ft | 357 kts | 213° |
| 2026-05-07 18:59 | 38.52384 | 11.74664 | 38924 ft | 357 kts | 213° |
| 2026-05-07 19:00 | 38.47912 | 11.71992 | 38916 ft | 357 kts | 213° |
| 2026-05-07 19:00 | 38.43414 | 11.69307 | 38916 ft | 357 kts | 213° |
| 2026-05-07 19:01 | 38.38920 | 11.66629 | 38917 ft | 355 kts | 213° |
| 2026-05-07 19:01 | 38.34439 | 11.63961 | 38920 ft | 355 kts | 213° |
| 2026-05-07 19:02 | 38.29964 | 11.61301 | 38916 ft | 355 kts | 213° |
| 2026-05-07 19:02 | 38.25491 | 11.58646 | 38918 ft | 354 kts | 213° |
| 2026-05-07 19:03 | 38.21020 | 11.55995 | 38916 ft | 354 kts | 213° |
| 2026-05-07 19:03 | 38.16575 | 11.53363 | 38918 ft | 355 kts | 213° |
| 2026-05-07 19:04 | 38.12085 | 11.50708 | 38916 ft | 355 kts | 213° |
| 2026-05-07 19:04 | 38.07600 | 11.48059 | 38917 ft | 356 kts | 213° |
| 2026-05-07 19:05 | 38.03101 | 11.45406 | 38917 ft | 357 kts | 213° |
| 2026-05-07 19:05 | 37.98592 | 11.42750 | 38916 ft | 357 kts | 213° |
| 2026-05-07 19:06 | 37.94072 | 11.40111 | 38916 ft | 360 kts | 211° |
| 2026-05-07 19:06 | 37.86679 | 11.37533 | 38908 ft | 370 kts | 203° |
| 2026-05-07 19:07 | 37.81667 | 11.36064 | 38911 ft | 369 kts | 203° |
| 2026-05-07 19:07 | 37.76673 | 11.34585 | 38912 ft | 368 kts | 203° |
| 2026-05-07 19:08 | 37.71689 | 11.33103 | 38914 ft | 368 kts | 203° |
| 2026-05-07 19:08 | 37.66713 | 11.31624 | 38911 ft | 367 kts | 203° |
| 2026-05-07 19:09 | 37.61772 | 11.30157 | 38913 ft | 366 kts | 203° |
| 2026-05-07 19:09 | 37.59263 | 11.29417 | 38626 ft | 375 kts | 204° |
| 2026-05-07 19:09 | 37.56722 | 11.28666 | 38306 ft | 372 kts | 203° |
| 2026-05-07 19:10 | 37.54232 | 11.27934 | 37996 ft | 363 kts | 203° |
| 2026-05-07 19:10 | 37.51788 | 11.27213 | 37718 ft | 360 kts | 203° |
| 2026-05-07 19:10 | 37.49342 | 11.26484 | 37469 ft | 363 kts | 203° |
| 2026-05-07 19:10 | 37.46870 | 11.25744 | 37179 ft | 367 kts | 203° |
| 2026-05-07 19:11 | 37.44385 | 11.25004 | 36686 ft | 364 kts | 203° |
| 2026-05-07 19:11 | 37.41930 | 11.24282 | 36234 ft | 360 kts | 202° |
| 2026-05-07 19:11 | 37.39503 | 11.23568 | 35833 ft | 355 kts | 202° |
| 2026-05-07 19:11 | 37.37115 | 11.22866 | 35396 ft | 350 kts | 202° |
| 2026-05-07 19:12 | 37.34758 | 11.22171 | 34985 ft | 347 kts | 202° |
| 2026-05-07 19:12 | 37.32422 | 11.21479 | 34590 ft | 352 kts | 202° |
| 2026-05-07 19:12 | 37.29989 | 11.20754 | 34170 ft | 355 kts | 202° |
| 2026-05-07 19:12 | 37.27597 | 11.20049 | 33718 ft | 352 kts | 202° |
| 2026-05-07 19:13 | 37.25222 | 11.19352 | 33255 ft | 349 kts | 201° |
| 2026-05-07 19:13 | 37.22902 | 11.18672 | 32823 ft | 346 kts | 201° |
| 2026-05-07 19:13 | 37.20575 | 11.17989 | 32403 ft | 342 kts | 201° |
| 2026-05-07 19:13 | 37.18270 | 11.17314 | 31992 ft | 338 kts | 201° |
| 2026-05-07 19:14 | 37.15990 | 11.16643 | 31600 ft | 338 kts | 201° |
| 2026-05-07 19:14 | 37.13664 | 11.15955 | 31211 ft | 346 kts | 201° |
| 2026-05-07 19:14 | 37.11318 | 11.15263 | 30789 ft | 345 kts | 201° |
| 2026-05-07 19:14 | 37.08983 | 11.14580 | 30381 ft | 343 kts | 201° |
| 2026-05-07 19:15 | 37.06666 | 11.13904 | 29980 ft | 340 kts | 201° |
| 2026-05-07 19:15 | 37.04371 | 11.13233 | 29505 ft | 338 kts | 201° |
| 2026-05-07 19:15 | 37.02089 | 11.12567 | 29060 ft | 335 kts | 201° |
| 2026-05-07 19:15 | 36.99831 | 11.11907 | 28629 ft | 332 kts | 201° |
| 2026-05-07 19:16 | 36.97589 | 11.11251 | 28214 ft | 329 kts | 201° |
| 2026-05-07 19:16 | 36.95361 | 11.10599 | 27808 ft | 329 kts | 200° |
| 2026-05-07 19:16 | 36.93183 | 11.09787 | 27263 ft | 322 kts | 208° |
| 2026-05-07 19:16 | 36.91194 | 11.08548 | 26462 ft | 318 kts | 216° |
| 2026-05-07 19:17 | 36.89310 | 11.07079 | 25611 ft | 321 kts | 216° |
| 2026-05-07 19:17 | 36.87417 | 11.05580 | 24808 ft | 323 kts | 216° |
| 2026-05-07 19:17 | 36.85512 | 11.04069 | 24103 ft | 323 kts | 216° |
| 2026-05-07 19:17 | 36.83616 | 11.02571 | 23538 ft | 320 kts | 216° |
| 2026-05-07 19:18 | 36.81751 | 11.01103 | 23039 ft | 317 kts | 216° |
| 2026-05-07 19:18 | 36.79895 | 10.99645 | 22634 ft | 314 kts | 216° |
| 2026-05-07 19:18 | 36.78047 | 10.98196 | 22223 ft | 312 kts | 216° |
| 2026-05-07 19:18 | 36.76216 | 10.96761 | 21825 ft | 310 kts | 216° |
| 2026-05-07 19:19 | 36.74416 | 10.95354 | 21446 ft | 308 kts | 216° |
| 2026-05-07 19:19 | 36.72608 | 10.93941 | 21056 ft | 306 kts | 216° |
| 2026-05-07 19:19 | 36.70806 | 10.92534 | 20691 ft | 304 kts | 216° |
| 2026-05-07 19:19 | 36.69015 | 10.91137 | 20321 ft | 302 kts | 216° |
| 2026-05-07 19:20 | 36.67240 | 10.89753 | 19959 ft | 300 kts | 216° |
| 2026-05-07 19:20 | 36.65473 | 10.88375 | 19588 ft | 299 kts | 216° |
| 2026-05-07 19:20 | 36.63712 | 10.87004 | 19220 ft | 298 kts | 216° |
| 2026-05-07 19:20 | 36.61957 | 10.85637 | 18859 ft | 297 kts | 216° |
| 2026-05-07 19:21 | 36.60209 | 10.84278 | 18488 ft | 296 kts | 216° |
| 2026-05-07 19:21 | 36.58468 | 10.82924 | 18097 ft | 295 kts | 216° |
| 2026-05-07 19:21 | 36.56727 | 10.81570 | 17690 ft | 294 kts | 216° |
| 2026-05-07 19:21 | 36.55000 | 10.80230 | 17292 ft | 292 kts | 216° |
| 2026-05-07 19:22 | 36.53280 | 10.78895 | 16922 ft | 290 kts | 217° |
| 2026-05-07 19:22 | 36.51579 | 10.77575 | 16554 ft | 288 kts | 217° |
| 2026-05-07 19:22 | 36.49884 | 10.76261 | 16195 ft | 286 kts | 217° |
| 2026-05-07 19:22 | 36.48197 | 10.74953 | 15836 ft | 285 kts | 217° |
| 2026-05-07 19:23 | 36.46541 | 10.73670 | 15471 ft | 284 kts | 217° |
| 2026-05-07 19:23 | 36.44867 | 10.72374 | 15110 ft | 283 kts | 217° |
| 2026-05-07 19:23 | 36.43201 | 10.71085 | 14756 ft | 282 kts | 217° |
| 2026-05-07 19:23 | 36.41537 | 10.69798 | 14393 ft | 281 kts | 217° |
| 2026-05-07 19:24 | 36.39878 | 10.68515 | 14023 ft | 281 kts | 217° |
| 2026-05-07 19:24 | 36.38224 | 10.67236 | 13650 ft | 281 kts | 217° |
| 2026-05-07 19:24 | 36.36565 | 10.65954 | 13256 ft | 280 kts | 217° |
| 2026-05-07 19:24 | 36.34915 | 10.64680 | 12880 ft | 279 kts | 217° |
| 2026-05-07 19:25 | 36.33271 | 10.63412 | 12511 ft | 278 kts | 217° |
| 2026-05-07 19:25 | 36.31634 | 10.62150 | 12149 ft | 276 kts | 217° |
| 2026-05-07 19:25 | 36.30004 | 10.60893 | 11784 ft | 275 kts | 217° |
| 2026-05-07 19:25 | 36.28381 | 10.59643 | 11428 ft | 274 kts | 217° |
| 2026-05-07 19:26 | 36.26764 | 10.58398 | 11081 ft | 273 kts | 217° |
| 2026-05-07 19:26 | 36.25155 | 10.57159 | 10729 ft | 272 kts | 217° |
| 2026-05-07 19:26 | 36.23593 | 10.55961 | 10569 ft | 256 kts | 217° |
| 2026-05-07 19:26 | 36.22089 | 10.54806 | 10334 ft | 252 kts | 217° |
| 2026-05-07 19:27 | 36.20612 | 10.53671 | 10076 ft | 247 kts | 217° |
| 2026-05-07 19:27 | 36.19157 | 10.52552 | 9574 ft | 247 kts | 217° |
| 2026-05-07 19:27 | 36.17690 | 10.51422 | 9022 ft | 250 kts | 216° |
| 2026-05-07 19:27 | 36.16218 | 10.50290 | 8708 ft | 249 kts | 216° |
| 2026-05-07 19:28 | 36.14750 | 10.49163 | 8409 ft | 248 kts | 216° |
| 2026-05-07 19:28 | 36.13288 | 10.48042 | 8135 ft | 247 kts | 216° |
| 2026-05-07 19:28 | 36.11825 | 10.46920 | 7864 ft | 247 kts | 215° |
| 2026-05-07 19:28 | 36.10364 | 10.45801 | 7600 ft | 247 kts | 215° |
| 2026-05-07 19:29 | 36.08917 | 10.44693 | 7348 ft | 247 kts | 215° |
| 2026-05-07 19:29 | 36.07567 | 10.43419 | 7228 ft | 239 kts | 230° |
| 2026-05-07 19:29 | 36.06681 | 10.41697 | 6864 ft | 243 kts | 245° |
| 2026-05-07 19:29 | 36.05998 | 10.39800 | 6553 ft | 241 kts | 245° |
| 2026-05-07 19:30 | 36.05318 | 10.37878 | 6264 ft | 246 kts | 245° |
| 2026-05-07 19:30 | 36.04623 | 10.35924 | 5969 ft | 249 kts | 245° |
| 2026-05-07 19:30 | 36.03924 | 10.33970 | 5674 ft | 248 kts | 245° |
| 2026-05-07 19:30 | 36.03225 | 10.32027 | 5373 ft | 247 kts | 245° |
| 2026-05-07 19:31 | 36.02525 | 10.30089 | 5096 ft | 246 kts | 245° |
| 2026-05-07 19:31 | 36.01828 | 10.28167 | 4922 ft | 242 kts | 244° |
| 2026-05-07 19:31 | 36.01151 | 10.26304 | 4820 ft | 234 kts | 244° |
| 2026-05-07 19:31 | 36.00495 | 10.24497 | 4720 ft | 228 kts | 244° |
| 2026-05-07 19:32 | 35.99864 | 10.22716 | 4629 ft | 226 kts | 250° |
| 2026-05-07 19:32 | 35.99774 | 10.20784 | 4543 ft | 231 kts | 281° |
| 2026-05-07 19:32 | 36.00526 | 10.19000 | 4340 ft | 243 kts | 312° |
| 2026-05-07 19:32 | 36.01982 | 10.17886 | 4153 ft | 252 kts | 338° |
| 2026-05-07 19:33 | 36.03653 | 10.17245 | 3921 ft | 251 kts | 343° |
| 2026-05-07 19:33 | 36.05328 | 10.16766 | 3714 ft | 248 kts | 355° |
| 2026-05-07 19:33 | 36.06959 | 10.17303 | 3496 ft | 244 kts | 38° |
| 2026-05-07 19:33 | 36.07905 | 10.18926 | 3268 ft | 237 kts | 77° |
| 2026-05-07 19:34 | 36.07895 | 10.20916 | 3089 ft | 229 kts | 102° |
| 2026-05-07 19:34 | 36.07709 | 10.22842 | 2842 ft | 223 kts | 95° |
| 2026-05-07 19:34 | 36.07670 | 10.24718 | 2640 ft | 213 kts | 91° |
| 2026-05-07 19:34 | 36.07664 | 10.26447 | 2475 ft | 191 kts | 92° |
| 2026-05-07 19:35 | 36.07657 | 10.28023 | 2253 ft | 175 kts | 91° |
| 2026-05-07 19:35 | 36.07648 | 10.29460 | 2028 ft | 160 kts | 91° |
| 2026-05-07 19:35 | 36.07641 | 10.30785 | 1834 ft | 145 kts | 91° |
| 2026-05-07 19:35 | 36.07633 | 10.31984 | 1646 ft | 136 kts | 90° |
| 2026-05-07 19:36 | 36.07627 | 10.33157 | 1466 ft | 138 kts | 91° |
| 2026-05-07 19:36 | 36.07620 | 10.34356 | 1293 ft | 141 kts | 90° |
| 2026-05-07 19:36 | 36.07614 | 10.35561 | 1096 ft | 139 kts | 90° |
| 2026-05-07 19:36 | 36.07608 | 10.36741 | 899 ft | 137 kts | 90° |
| 2026-05-07 19:37 | 36.07599 | 10.37895 | 746 ft | 136 kts | 90° |
| 2026-05-07 19:37 | 36.07593 | 10.39085 | 626 ft | 139 kts | 90° |
| 2026-05-07 19:37 | 36.07597 | 10.40283 | 386 ft | 140 kts | 90° |
| 2026-05-07 19:37 | 36.07587 | 10.41469 | 157 ft | 136 kts | 91° |
| 2026-05-07 19:38 | 36.07576 | 10.42619 | 32 ft | 127 kts | 92° |
| 2026-05-07 19:38 | 36.07577 | 10.43535 | 30 ft | 85 kts | 90° |
| 2026-05-07 19:38 | 36.07575 | 10.44081 | 31 ft | 49 kts | 86° |
| 2026-05-07 19:38 | 36.07674 | 10.44396 | 30 ft | 17 kts | 36° |
| 2026-05-07 19:39 | 36.07745 | 10.44335 | 31 ft | 15 kts | 275° |
| 2026-05-07 19:39 | 36.07746 | 10.44208 | 31 ft | 14 kts | 270° |
| 2026-05-07 19:39 | 36.07747 | 10.44088 | 30 ft | 12 kts | 270° |
| 2026-05-07 19:39 | 36.07747 | 10.44021 | 30 ft | 12 kts | 270° |
| 2026-05-07 19:40 | 36.07806 | 10.43938 | 30 ft | 11 kts | 4° |
| 2026-05-07 19:40 | 36.07892 | 10.43939 | 27 ft | 14 kts | 0° |
| 2026-05-07 19:40 | 36.07993 | 10.43939 | 23 ft | 15 kts | 359° |
| 2026-05-07 19:40 | 36.08080 | 10.44004 | 20 ft | 12 kts | 44° |
| 2026-05-07 19:41 | 36.08110 | 10.44020 | 17 ft | 4 kts | 356° |
| 2026-05-07 19:41 | 36.08125 | 10.44005 | 17 ft | 6 kts | 317° |
| 2026-05-07 19:41 | 36.08159 | 10.43981 | 15 ft | 1 kts | 331° |
| 2026-05-07 19:41 | 36.08174 | 10.43971 | 15 ft | 0 kts | 330° |